createdAt,value
2022-09-04T00:00:19.451Z,101293.28
2022-09-04T00:03:01.806Z,101300.75
2022-09-04T00:05:35.339Z,101297.91
2022-09-04T00:08:14.284Z,101289.81
2022-09-04T00:10:57.731Z,101299.97
2022-09-04T00:13:32.059Z,101296.34
2022-09-04T00:16:21.473Z,101305.91
2022-09-04T00:19:15.464Z,101301.16
2022-09-04T00:22:01.139Z,101310.22
2022-09-04T00:24:48.633Z,101316.72
2022-09-04T00:27:27.795Z,101304.69
2022-09-04T00:30:01.868Z,101310.06
2022-09-04T00:32:44.562Z,101312.94
2022-09-04T00:35:23.202Z,101330.09
2022-09-04T00:37:59.073Z,101328.47
2022-09-04T00:40:36.940Z,101324.22
2022-09-04T00:43:33.552Z,101325.00
2022-09-04T00:46:24.265Z,101324.41
2022-09-04T00:49:05.848Z,101334.19
2022-09-04T00:51:49.241Z,101324.97
2022-09-04T00:54:21.699Z,101335.31
2022-09-04T00:57:14.160Z,101333.56
2022-09-04T01:00:16.059Z,101330.41
2022-09-04T01:03:24.274Z,101330.41
2022-09-04T01:06:25.115Z,101330.41
2022-09-04T01:09:35.140Z,101341.53
2022-09-04T01:12:14.464Z,101340.88
2022-09-04T01:15:21.170Z,101338.97
2022-09-04T01:18:12.587Z,101350.69
2022-09-04T01:20:44.914Z,101350.69
2022-09-04T01:23:32.689Z,101353.25
2022-09-04T01:26:26.802Z,101348.47
2022-09-04T01:29:21.463Z,101343.91
2022-09-04T01:32:32.409Z,101353.38
2022-09-04T01:35:29.616Z,101351.34
2022-09-04T01:38:20.155Z,101353.88
2022-09-04T01:41:01.256Z,101353.25
2022-09-04T01:43:31.095Z,101360.22
2022-09-04T01:46:28.470Z,101365.59
2022-09-04T01:49:28.802Z,101369.91
2022-09-04T01:52:08.828Z,101371.94
2022-09-04T01:55:09.720Z,101379.88
2022-09-04T01:57:48.167Z,101380.81
2022-09-04T02:00:25.043Z,101379.38
2022-09-04T02:03:16.370Z,101376.34
2022-09-04T02:06:22.227Z,101368.41
2022-09-04T02:09:12.875Z,101378.56
2022-09-04T02:11:55.353Z,101382.66
2022-09-04T02:14:46.522Z,101380.59
2022-09-04T02:17:21.064Z,101380.41
2022-09-04T02:20:02.599Z,101382.94
2022-09-04T02:22:40.067Z,101393.69
2022-09-04T02:25:23.591Z,101400.00
2022-09-04T02:28:22.494Z,101401.13
2022-09-04T02:31:34.629Z,101402.53
2022-09-04T02:34:12.819Z,101398.88
2022-09-04T02:37:17.343Z,101392.72
2022-09-04T02:40:12.122Z,101399.53
2022-09-04T02:43:24.839Z,101406.38
2022-09-04T02:46:07.004Z,101400.34
2022-09-04T02:48:50.009Z,101402.19
2022-09-04T02:51:38.831Z,101409.50
2022-09-04T02:54:21.920Z,101409.00
2022-09-04T02:57:02.353Z,101414.50
2022-09-04T02:59:40.784Z,101416.72
2022-09-04T03:02:30.571Z,101416.38
2022-09-04T03:05:03.087Z,101416.84
2022-09-04T03:07:37.635Z,101417.66
2022-09-04T03:10:18.103Z,101427.00
2022-09-04T03:13:04.325Z,101427.00
2022-09-04T03:15:48.372Z,101425.22
2022-09-04T03:18:34.050Z,101419.00
2022-09-04T03:21:16.621Z,101419.00
2022-09-04T03:23:49.665Z,101420.59
2022-09-04T03:26:34.900Z,101425.50
2022-09-04T03:29:10.893Z,101426.31
2022-09-04T03:31:52.388Z,101422.97
2022-09-04T03:34:32.828Z,101415.66
2022-09-04T03:37:30.635Z,101422.16
2022-09-04T03:40:00.075Z,101419.78
2022-09-04T03:42:41.836Z,101428.69
2022-09-04T03:45:21.525Z,101424.69
2022-09-04T03:48:05.860Z,101428.97
2022-09-04T03:50:51.385Z,101421.66
2022-09-04T03:53:42.586Z,101438.41
2022-09-04T03:56:49.863Z,101438.75
2022-09-04T03:59:28.350Z,101439.69
2022-09-04T04:02:19.541Z,101431.63
2022-09-04T04:05:23.703Z,101432.66
2022-09-04T04:08:23.302Z,101443.44
2022-09-04T04:11:15.589Z,101442.94
2022-09-04T04:14:18.041Z,101439.31
2022-09-04T04:17:02.793Z,101450.03
2022-09-04T04:19:44.731Z,101450.16
2022-09-04T04:22:53.328Z,101450.31
2022-09-04T04:25:32.595Z,101460.91
2022-09-04T04:28:27.019Z,101465.81
2022-09-04T04:31:07.386Z,101464.00
2022-09-04T04:33:42.567Z,101471.13
2022-09-04T04:36:17.710Z,101474.56
2022-09-04T04:39:05.750Z,101474.56
2022-09-04T04:41:59.561Z,101473.28
2022-09-04T04:45:09.045Z,101470.44
2022-09-04T04:48:04.344Z,101472.81
2022-09-04T04:50:42.690Z,101471.34
2022-09-04T04:53:31.838Z,101482.41
2022-09-04T04:56:29.107Z,101479.44
2022-09-04T04:59:30.316Z,101483.50
2022-09-04T05:02:31.415Z,101480.13
2022-09-04T05:05:13.497Z,101484.44
2022-09-04T05:07:52.513Z,101485.22
2022-09-04T05:10:44.115Z,101496.84
2022-09-04T05:13:55.891Z,101495.00
2022-09-04T05:16:52.203Z,101497.63
2022-09-04T05:19:35.280Z,101498.16
2022-09-04T05:22:21.518Z,101509.75
2022-09-04T05:25:01.121Z,101513.28
2022-09-04T05:28:10.915Z,101518.78
2022-09-04T05:30:52.345Z,101518.78
2022-09-04T05:33:28.403Z,101528.66
2022-09-04T05:36:33.760Z,101542.94
2022-09-04T05:39:11.392Z,101540.22
2022-09-04T05:42:06.704Z,101541.31
2022-09-04T05:44:39.464Z,101543.69
2022-09-04T05:47:20.811Z,101541.41
2022-09-04T05:50:08.875Z,101551.75
2022-09-04T05:52:50.448Z,101560.38
2022-09-04T05:56:05.648Z,101563.16
2022-09-04T05:58:56.780Z,101565.16
2022-09-04T06:02:09.475Z,101561.53
2022-09-04T06:05:04.987Z,101568.56
2022-09-04T06:07:43.562Z,101572.44
2022-09-04T06:10:33.440Z,101573.09
2022-09-04T06:13:33.356Z,101572.78
2022-09-04T06:16:21.474Z,101575.69
2022-09-04T06:19:34.606Z,101578.59
2022-09-04T06:22:29.731Z,101567.97
2022-09-04T06:25:31.563Z,101576.41
2022-09-04T06:28:23.762Z,101582.06
2022-09-04T06:31:31.487Z,101580.00
2022-09-04T06:34:27.198Z,101581.94
2022-09-04T06:37:09.919Z,101580.66
2022-09-04T06:39:53.817Z,101587.81
2022-09-04T06:42:38.513Z,101599.09
2022-09-04T06:45:33.811Z,101589.91
2022-09-04T06:48:07.403Z,101588.78
2022-09-04T06:50:48.822Z,101592.59
2022-09-04T06:53:34.833Z,101590.56
2022-09-04T06:56:29.079Z,101594.69
2022-09-04T06:59:01.347Z,101611.69
2022-09-04T07:02:06.429Z,101602.97
2022-09-04T07:04:51.224Z,101605.22
2022-09-04T07:07:39.802Z,101607.56
2022-09-04T07:10:14.879Z,101614.19
2022-09-04T07:13:09.294Z,101622.47
2022-09-04T07:16:20.003Z,101616.81
2022-09-04T07:19:17.356Z,101620.88
2022-09-04T07:22:10.937Z,101628.72
2022-09-04T07:25:09.193Z,101626.66
2022-09-04T07:28:02.563Z,101636.09
2022-09-04T07:30:37.548Z,101630.63
2022-09-04T07:33:21.983Z,101632.66
2022-09-04T07:36:01.599Z,101645.38
2022-09-04T07:38:50.929Z,101645.47
2022-09-04T07:41:31.411Z,101637.03
2022-09-04T07:44:30.009Z,101643.19
2022-09-04T07:47:19.986Z,101643.19
2022-09-04T07:50:13.363Z,101646.69
2022-09-04T07:53:22.609Z,101645.63
2022-09-04T07:55:56.391Z,101646.75
2022-09-04T07:58:49.456Z,101649.56
2022-09-04T08:01:42.456Z,101655.88
2022-09-04T08:04:44.422Z,101657.13
2022-09-04T08:07:48.877Z,101653.97
2022-09-04T08:10:24.300Z,101663.97
2022-09-04T08:13:14.322Z,101661.59
2022-09-04T08:16:04.963Z,101655.94
2022-09-04T08:18:58.995Z,101657.72
2022-09-04T08:21:46.572Z,101668.53
2022-09-04T08:24:36.176Z,101659.09
2022-09-04T08:27:30.664Z,101671.88
2022-09-04T08:30:10.996Z,101676.56
2022-09-04T08:33:13.063Z,101673.00
2022-09-04T08:36:00.682Z,101680.78
2022-09-04T08:39:06.616Z,101678.69
2022-09-04T08:42:08.499Z,101676.16
2022-09-04T08:45:19.936Z,101688.09
2022-09-04T08:48:20.371Z,101688.44
2022-09-04T08:51:15.039Z,101690.38
2022-09-04T08:54:14.476Z,101703.06
2022-09-04T08:56:50.227Z,101703.38
2022-09-04T08:59:47.062Z,101703.66
2022-09-04T09:02:48.091Z,101696.03
2022-09-04T09:05:26.702Z,101695.28
2022-09-04T09:08:18.775Z,101689.47
2022-09-04T09:11:14.667Z,101696.59
2022-09-04T09:14:02.491Z,101694.22
2022-09-04T09:16:43.849Z,101689.22
2022-09-04T09:19:15.173Z,101699.97
2022-09-04T09:22:10.245Z,101693.63
2022-09-04T09:24:49.362Z,101695.72
2022-09-04T09:27:37.423Z,101684.63
2022-09-04T09:30:10.647Z,101671.19
2022-09-04T09:32:54.920Z,101683.00
2022-09-04T09:35:24.224Z,101687.41
2022-09-04T09:38:31.179Z,101684.16
2022-09-04T09:41:34.979Z,101676.13
2022-09-04T09:44:49.414Z,101679.38
2022-09-04T09:47:39.456Z,101677.41
2022-09-04T09:50:15.274Z,101684.22
2022-09-04T09:52:59.918Z,101685.19
2022-09-04T09:55:50.692Z,101692.22
2022-09-04T09:58:57.422Z,101681.91
2022-09-04T10:01:51.728Z,101683.41
2022-09-04T10:04:46.858Z,101689.44
2022-09-04T10:07:37.092Z,101689.31
2022-09-04T10:10:43.659Z,101679.94
2022-09-04T10:13:12.996Z,101688.75
2022-09-04T10:16:13.428Z,101680.44
2022-09-04T10:18:59.376Z,101686.88
2022-09-04T10:22:16.963Z,101679.25
2022-09-04T10:25:23.931Z,101693.25
2022-09-04T10:28:30.701Z,101692.03
2022-09-04T10:31:26.111Z,101687.31
2022-09-04T10:34:27.157Z,101702.06
2022-09-04T10:37:23.252Z,101696.78
2022-09-04T10:40:44.496Z,101691.19
2022-09-04T10:43:54.943Z,101698.56
2022-09-04T10:46:36.648Z,101694.84
2022-09-04T10:49:16.799Z,101690.59
2022-09-04T10:52:17.298Z,101692.03
2022-09-04T10:54:55.734Z,101688.88
2022-09-04T10:58:20.311Z,101700.25
2022-09-04T11:01:22.527Z,101695.66
2022-09-04T11:04:29.910Z,101693.97
2022-09-04T11:07:32.795Z,101683.97
2022-09-04T11:10:09.716Z,101681.25
2022-09-04T11:12:58.014Z,101685.69
2022-09-04T11:15:54.721Z,101685.69
2022-09-04T11:18:58.088Z,101686.97
2022-09-04T11:21:29.317Z,101689.59
2022-09-04T11:24:01.683Z,101677.06
2022-09-04T11:26:46.463Z,101681.88
2022-09-04T11:29:27.215Z,101679.38
2022-09-04T11:32:18.967Z,101682.09
2022-09-04T11:35:23.939Z,101674.91
2022-09-04T11:38:43.782Z,101676.69
2022-09-04T11:41:36.627Z,101679.63
2022-09-04T11:44:27.782Z,101679.28
2022-09-04T11:47:28.474Z,101678.44
2022-09-04T11:50:27.110Z,101690.09
2022-09-04T11:53:28.968Z,101678.66
2022-09-04T11:56:23.214Z,101683.47
2022-09-04T11:59:13.069Z,101685.81
2022-09-04T12:02:00.985Z,101688.91
2022-09-04T12:05:06.167Z,101689.03
2022-09-04T12:08:17.324Z,101686.09
2022-09-04T12:11:08.275Z,101678.78
2022-09-04T12:14:12.274Z,101686.19
2022-09-04T12:17:15.515Z,101677.28
2022-09-04T12:19:48.382Z,101682.03
2022-09-04T12:22:41.563Z,101689.16
2022-09-04T12:25:13.687Z,101686.47
2022-09-04T12:27:57.691Z,101701.31
2022-09-04T12:30:56.327Z,101693.81
2022-09-04T12:33:46.401Z,101687.38
2022-09-04T12:36:34.586Z,101698.69
2022-09-04T12:39:28.796Z,101693.25
2022-09-04T12:42:14.643Z,101705.44
2022-09-04T12:45:15.185Z,101708.06
2022-09-04T12:48:18.478Z,101712.16
2022-09-04T12:51:04.214Z,101706.75
2022-09-04T12:53:52.952Z,101712.16
2022-09-04T12:56:31.430Z,101707.88
2022-09-04T12:59:16.064Z,101703.41
2022-09-04T13:02:12.644Z,101700.56
2022-09-04T13:05:02.507Z,101708.28
2022-09-04T13:07:41.097Z,101693.22
2022-09-04T13:10:33.768Z,101695.00
2022-09-04T13:13:31.417Z,101706.22
2022-09-04T13:16:09.886Z,101713.88
2022-09-04T13:19:09.431Z,101712.53
2022-09-04T13:22:08.256Z,101715.06
2022-09-04T13:25:03.323Z,101698.91
2022-09-04T13:27:57.425Z,101705.97
2022-09-04T13:30:27.503Z,101700.22
2022-09-04T13:33:14.235Z,101701.78
2022-09-04T13:36:10.673Z,101703.53
2022-09-04T13:39:14.084Z,101704.00
2022-09-04T13:42:01.726Z,101703.69
2022-09-04T13:44:41.010Z,101700.56
2022-09-04T13:47:26.003Z,101709.16
2022-09-04T13:50:25.077Z,101700.69
2022-09-04T13:53:19.254Z,101701.47
2022-09-04T13:55:57.496Z,101706.03
2022-09-04T13:58:45.525Z,101711.84
2022-09-04T14:01:21.863Z,101710.75
2022-09-04T14:03:58.611Z,101707.00
2022-09-04T14:06:32.045Z,101709.94
2022-09-04T14:09:04.518Z,101701.50
2022-09-04T14:12:15.573Z,101715.53
2022-09-04T14:14:54.040Z,101709.44
2022-09-04T14:17:30.983Z,101703.53
2022-09-04T14:20:20.678Z,101710.97
2022-09-04T14:23:07.924Z,101712.50
2022-09-04T14:25:51.112Z,101711.03
2022-09-04T14:28:37.530Z,101711.09
2022-09-04T14:31:25.567Z,101710.09
2022-09-04T14:34:16.115Z,101714.78
2022-09-04T14:37:08.744Z,101713.47
2022-09-04T14:39:50.145Z,101712.31
2022-09-04T14:42:42.741Z,101717.34
2022-09-04T14:45:35.764Z,101719.47
2022-09-04T14:48:15.305Z,101718.72
2022-09-04T14:50:54.431Z,101719.97
2022-09-04T14:53:29.358Z,101710.25
2022-09-04T14:56:17.791Z,101698.88
2022-09-04T14:58:53.135Z,101702.50
2022-09-04T15:01:25.321Z,101711.00
2022-09-04T15:03:59.349Z,101702.28
2022-09-04T15:07:01.076Z,101715.03
2022-09-04T15:09:43.814Z,101705.50
2022-09-04T15:12:31.116Z,101711.19
2022-09-04T15:15:13.748Z,101702.00
2022-09-04T15:17:52.958Z,101707.28
2022-09-04T15:20:27.296Z,101710.94
2022-09-04T15:23:27.452Z,101695.31
2022-09-04T15:26:28.712Z,101701.53
2022-09-04T15:29:17.476Z,101707.75
2022-09-04T15:31:47.330Z,101707.28
2022-09-04T15:34:29.041Z,101706.03
2022-09-04T15:37:12.517Z,101706.97
2022-09-04T15:40:02.425Z,101705.94
2022-09-04T15:42:39.312Z,101705.72
2022-09-04T15:45:20.868Z,101704.78
2022-09-04T15:48:15.511Z,101703.22
2022-09-04T15:51:01.579Z,101709.09
2022-09-04T15:53:33.917Z,101709.47
2022-09-04T15:56:18.472Z,101709.47
2022-09-04T15:58:55.247Z,101703.97
2022-09-04T16:01:30.278Z,101701.28
2022-09-04T16:04:12.775Z,101702.38
2022-09-04T16:07:32.996Z,101702.69
2022-09-04T16:10:07.156Z,101709.94
2022-09-04T16:12:43.448Z,101705.69
2022-09-04T16:15:25.590Z,101699.88
2022-09-04T16:17:57.809Z,101708.19
2022-09-04T16:20:36.572Z,101709.03
2022-09-04T16:23:15.125Z,101701.34
2022-09-04T16:25:53.524Z,101708.50
2022-09-04T16:28:33.002Z,101708.81
2022-09-04T16:31:09.031Z,101707.25
2022-09-04T16:33:40.722Z,101702.59
2022-09-04T16:36:23.756Z,101697.09
2022-09-04T16:39:11.793Z,101697.66
2022-09-04T16:41:51.181Z,101706.13
2022-09-04T16:44:22.112Z,101702.22
2022-09-04T16:47:13.868Z,101701.16
2022-09-04T16:50:13.497Z,101708.41
2022-09-04T16:52:58.817Z,101712.63
2022-09-04T16:55:49.378Z,101700.84
2022-09-04T16:58:49.395Z,101700.28
2022-09-04T17:01:32.228Z,101708.28
2022-09-04T17:04:23.698Z,101701.72
2022-09-04T17:07:13.225Z,101701.06
2022-09-04T17:10:15.315Z,101706.38
2022-09-04T17:12:52.643Z,101705.13
2022-09-04T17:15:53.923Z,101706.78
2022-09-04T17:18:26.440Z,101702.38
2022-09-04T17:26:36.001Z,101704.28
2022-09-04T17:28:59.508Z,101703.88
2022-09-04T17:29:09.736Z,101703.69
2022-09-04T17:30:42.713Z,101705.91
2022-09-04T17:36:43.083Z,101701.50
2022-09-04T17:40:55.090Z,101704.72
2022-09-04T17:41:29.613Z,101711.38
2022-09-04T17:42:37.302Z,101708.53
2022-09-04T17:45:17.305Z,101702.25
2022-09-04T17:47:46.795Z,101712.31
2022-09-04T17:50:22.645Z,101714.97
2022-09-04T17:53:17.712Z,101713.63
2022-09-04T17:56:06.791Z,101707.63
2022-09-04T17:58:51.471Z,101710.53
2022-09-04T18:01:33.677Z,101719.75
2022-09-04T18:04:22.470Z,101733.13
2022-09-04T18:07:44.737Z,101729.44
2022-09-04T18:10:24.963Z,101732.56
2022-09-04T18:13:06.500Z,101738.59
2022-09-04T18:15:43.994Z,101728.03
2022-09-04T18:18:41.147Z,101735.56
2022-09-04T18:21:23.987Z,101733.91
2022-09-04T18:24:00.459Z,101728.84
2022-09-04T18:26:50.207Z,101740.81
2022-09-04T18:30:06.629Z,101740.97
2022-09-04T18:37:17.026Z,101747.91
2022-09-04T18:37:25.323Z,101746.72
2022-09-04T18:38:35.241Z,101754.69
2022-09-04T18:45:09.937Z,101765.06
2022-09-04T18:50:23.593Z,101765.16
2022-09-04T18:50:49.244Z,101765.28
2022-09-04T18:53:28.193Z,101759.16
2022-09-04T18:56:20.480Z,101770.53
2022-09-04T18:59:05.838Z,101774.28
2022-09-04T19:01:50.572Z,101763.41
2022-09-04T19:04:36.096Z,101771.38
2022-09-04T19:07:14.499Z,101778.28
2022-09-04T19:10:21.616Z,101778.84
2022-09-04T19:12:54.023Z,101778.41
2022-09-04T19:15:37.767Z,101786.34
2022-09-04T19:18:20.498Z,101777.84
2022-09-04T19:20:58.136Z,101782.09
2022-09-04T19:23:36.584Z,101779.63
2022-09-04T19:26:21.326Z,101771.09
2022-09-04T19:28:58.737Z,101774.09
2022-09-04T19:31:44.172Z,101789.63
2022-09-04T19:34:25.703Z,101789.72
2022-09-04T19:37:30.123Z,101791.88
2022-09-04T19:46:01.809Z,101792.47
2022-09-04T19:46:15.284Z,101792.03
2022-09-04T19:46:42.021Z,101793.41
2022-09-04T19:53:22.753Z,101798.94
2022-09-04T19:53:29.900Z,101799.50
2022-09-04T19:55:49.258Z,101791.69
2022-09-04T19:58:26.264Z,101797.81
2022-09-04T20:01:04.284Z,101784.50
2022-09-04T20:03:50.165Z,101795.97
2022-09-04T20:06:26.042Z,101800.03
2022-09-04T20:09:33.110Z,101795.09
2022-09-04T20:12:19.577Z,101797.41
2022-09-04T20:14:56.169Z,101806.69
2022-09-04T20:17:47.498Z,101804.97
2022-09-04T20:20:26.010Z,101795.09
2022-09-04T20:22:58.653Z,101802.78
2022-09-04T20:25:31.879Z,101794.78
2022-09-04T20:28:35.125Z,101805.34
2022-09-04T20:31:35.569Z,101805.53
2022-09-04T20:34:02.280Z,101803.00
2022-09-04T20:36:41.014Z,101799.19
2022-09-04T20:39:35.351Z,101809.72
2022-09-04T20:42:21.037Z,101808.78
2022-09-04T20:46:40.194Z,101803.34
2022-09-04T20:52:49.482Z,101811.03
2022-09-04T20:52:58.419Z,101812.94
2022-09-04T20:54:08.978Z,101814.69
2022-09-04T21:00:36.599Z,101817.41
2022-09-04T21:03:08.103Z,101821.38
2022-09-04T21:03:32.662Z,101813.88
2022-09-04T21:06:25.383Z,101813.41
2022-09-04T21:09:08.743Z,101810.38
2022-09-04T21:11:43.952Z,101811.34
2022-09-04T21:14:27.023Z,101807.50
2022-09-04T21:17:33.326Z,101814.50
2022-09-04T21:20:28.828Z,101821.69
2022-09-04T21:23:07.615Z,101815.78
2022-09-04T21:26:06.663Z,101809.72
2022-09-04T21:28:42.071Z,101807.03
2022-09-04T21:31:22.707Z,101819.44
2022-09-04T21:34:20.752Z,101820.84
2022-09-04T21:37:03.701Z,101813.69
2022-09-04T21:40:43.249Z,101812.53
2022-09-04T21:43:36.219Z,101814.44
2022-09-04T21:46:35.032Z,101817.00
2022-09-04T21:49:27.763Z,101817.00
2022-09-04T21:52:17.863Z,101810.94
2022-09-04T21:56:16.069Z,101819.22
2022-09-04T22:02:35.109Z,101811.22
2022-09-04T22:02:49.281Z,101822.66
2022-09-04T22:04:25.539Z,101826.78
2022-09-04T22:10:55.975Z,101835.66
2022-09-04T22:13:38.392Z,101834.44
2022-09-04T22:13:40.553Z,101829.78
2022-09-04T22:16:29.675Z,101823.66
2022-09-04T22:19:18.735Z,101820.47
2022-09-04T22:22:03.434Z,101825.25
2022-09-04T22:25:12.212Z,101827.97
2022-09-04T22:28:26.223Z,101817.00
2022-09-04T22:31:10.385Z,101821.09
2022-09-04T22:34:16.226Z,101822.09
2022-09-04T22:37:04.742Z,101823.19
2022-09-04T22:39:57.516Z,101828.47
2022-09-04T22:42:39.931Z,101825.59
2022-09-04T22:45:44.055Z,101832.09
2022-09-04T22:48:20.007Z,101832.91
2022-09-04T22:51:21.689Z,101836.09
2022-09-04T22:54:04.348Z,101833.56
2022-09-04T22:56:59.899Z,101838.00
2022-09-04T22:59:56.315Z,101842.16
2022-09-04T23:06:30.749Z,101832.28
2022-09-04T23:13:44.079Z,101842.78
2022-09-04T23:13:57.901Z,101827.81
2022-09-04T23:15:33.847Z,101835.75
2022-09-04T23:20:18.946Z,101839.09
2022-09-04T23:26:43.575Z,101840.00
2022-09-04T23:26:54.019Z,101836.69
2022-09-04T23:28:27.292Z,101830.00
2022-09-04T23:31:10.511Z,101834.72
2022-09-04T23:34:01.980Z,101827.41
2022-09-04T23:36:53.185Z,101834.38
2022-09-04T23:40:05.949Z,101832.13
2022-09-04T23:42:52.006Z,101831.03
2022-09-04T23:45:27.012Z,101836.75
2022-09-04T23:48:13.312Z,101837.34
2022-09-04T23:51:01.671Z,101834.31
2022-09-04T23:53:46.553Z,101824.16
2022-09-04T23:56:21.843Z,101831.44
2022-09-04T23:59:21.250Z,101830.81
